Structure, Texas
Current Conditions -  °F | °C
As of 2:35 PM on Monday 22 Dec 2014 (Local Time) from KEDC Reporting Station
Clear Clear  
Wind Chill: 19°   Ceiling: Unl
Heat Index: 19°   Visibility: 10mi
Dew Point: 13°   Wind: 9mph
Humidity: 68%   Direction: 190°S
Pressure: 29.62"   Gusts: NA
Location:  30.2988°N, 97.3874°W
Report Text: KEDC 222035Z AUTO 19008KT 10SM CLR 19/13 A2962 RMK AO2
Loading
Personal Weather Stations






























Interactive Weather Map New forecast layout! Learn more

10-Day Weather Forecast

Advertisements
Track Severe Weather on mobile